sensor_id;sensor_type;location;lat;lon;timestamp;noise_LAeq;noise_LA_min;noise_LA_max;noise_LA01;noise_LA95
72805;Laerm;60920;48.748;19.142;2024-01-30T00:01:39;29.04;27.82;30.16;;
72805;Laerm;60920;48.748;19.142;2024-01-30T00:04:04;29.04;27.93;30.21;;
72805;Laerm;60920;48.748;19.142;2024-01-30T00:06:30;29.06;27.63;30.18;;
72805;Laerm;60920;48.748;19.142;2024-01-30T00:08:56;29.06;27.81;30.19;;
72805;Laerm;60920;48.748;19.142;2024-01-30T00:11:21;29.08;27.70;30.28;;
72805;Laerm;60920;48.748;19.142;2024-01-30T00:13:47;29.05;27.68;30.44;;
72805;Laerm;60920;48.748;19.142;2024-01-30T00:16:21;29.06;27.85;30.08;;
72805;Laerm;60920;48.748;19.142;2024-01-30T00:18:47;29.06;27.72;30.37;;
72805;Laerm;60920;48.748;19.142;2024-01-30T00:21:12;29.06;27.79;30.45;;
72805;Laerm;60920;48.748;19.142;2024-01-30T00:23:38;29.07;27.85;30.18;;
72805;Laerm;60920;48.748;19.142;2024-01-30T00:26:03;29.07;27.80;30.28;;
72805;Laerm;60920;48.748;19.142;2024-01-30T00:28:29;29.06;27.81;30.23;;
72805;Laerm;60920;48.748;19.142;2024-01-30T00:30:54;29.06;27.82;30.30;;
72805;Laerm;60920;48.748;19.142;2024-01-30T00:33:19;29.07;27.78;30.74;;
72805;Laerm;60920;48.748;19.142;2024-01-30T00:35:45;29.04;27.78;30.20;;
72805;Laerm;60920;48.748;19.142;2024-01-30T00:38:10;29.06;27.80;30.17;;
72805;Laerm;60920;48.748;19.142;2024-01-30T00:40:35;29.03;27.82;30.33;;
72805;Laerm;60920;48.748;19.142;2024-01-30T00:43:00;29.04;27.84;30.29;;
72805;Laerm;60920;48.748;19.142;2024-01-30T00:45:26;29.03;27.82;30.28;;
72805;Laerm;60920;48.748;19.142;2024-01-30T00:47:51;29.03;27.58;30.11;;
72805;Laerm;60920;48.748;19.142;2024-01-30T00:50:16;29.03;27.53;30.26;;
72805;Laerm;60920;48.748;19.142;2024-01-30T00:52:41;29.05;27.75;30.20;;
72805;Laerm;60920;48.748;19.142;2024-01-30T00:55:09;29.04;27.83;30.30;;
72805;Laerm;60920;48.748;19.142;2024-01-30T00:57:35;29.05;27.62;30.32;;
72805;Laerm;60920;48.748;19.142;2024-01-30T01:00:00;29.04;27.43;30.30;;
72805;Laerm;60920;48.748;19.142;2024-01-30T01:02:25;29.05;27.89;30.30;;
72805;Laerm;60920;48.748;19.142;2024-01-30T01:04:51;29.04;27.54;30.13;;
72805;Laerm;60920;48.748;19.142;2024-01-30T01:07:16;29.05;27.77;30.10;;
72805;Laerm;60920;48.748;19.142;2024-01-30T01:09:41;29.02;27.87;30.09;;
72805;Laerm;60920;48.748;19.142;2024-01-30T01:12:07;29.00;27.85;30.04;;
72805;Laerm;60920;48.748;19.142;2024-01-30T01:14:32;29.03;27.81;30.57;;
72805;Laerm;60920;48.748;19.142;2024-01-30T01:16:57;29.03;27.83;30.14;;
72805;Laerm;60920;48.748;19.142;2024-01-30T01:19:22;29.05;27.81;30.18;;
72805;Laerm;60920;48.748;19.142;2024-01-30T01:21:48;29.04;27.91;30.36;;
72805;Laerm;60920;48.748;19.142;2024-01-30T01:24:13;29.05;27.82;30.36;;
72805;Laerm;60920;48.748;19.142;2024-01-30T01:26:39;29.05;27.72;30.10;;
72805;Laerm;60920;48.748;19.142;2024-01-30T01:29:04;29.06;27.58;30.11;;
72805;Laerm;60920;48.748;19.142;2024-01-30T01:31:35;29.04;27.60;30.49;;
72805;Laerm;60920;48.748;19.142;2024-01-30T01:34:04;29.05;27.68;30.40;;
72805;Laerm;60920;48.748;19.142;2024-01-30T01:36:30;29.04;27.97;30.33;;
72805;Laerm;60920;48.748;19.142;2024-01-30T01:38:55;29.03;27.87;30.10;;
72805;Laerm;60920;48.748;19.142;2024-01-30T01:41:20;29.04;27.73;30.19;;
72805;Laerm;60920;48.748;19.142;2024-01-30T01:43:46;29.05;27.67;30.11;;
72805;Laerm;60920;48.748;19.142;2024-01-30T01:46:11;29.04;27.76;30.26;;
72805;Laerm;60920;48.748;19.142;2024-01-30T01:48:36;29.05;27.88;30.10;;
72805;Laerm;60920;48.748;19.142;2024-01-30T01:51:02;29.04;27.78;30.16;;
72805;Laerm;60920;48.748;19.142;2024-01-30T01:53:27;29.04;27.64;30.22;;
72805;Laerm;60920;48.748;19.142;2024-01-30T01:55:53;29.05;27.53;30.25;;
72805;Laerm;60920;48.748;19.142;2024-01-30T01:58:19;29.03;27.74;30.15;;
72805;Laerm;60920;48.748;19.142;2024-01-30T02:00:45;29.05;27.75;30.22;;
72805;Laerm;60920;48.748;19.142;2024-01-30T02:03:10;29.05;27.70;30.36;;
72805;Laerm;60920;48.748;19.142;2024-01-30T02:05:37;29.03;27.66;30.23;;
72805;Laerm;60920;48.748;19.142;2024-01-30T02:08:03;29.03;27.65;30.24;;
72805;Laerm;60920;48.748;19.142;2024-01-30T02:10:28;29.04;27.55;30.17;;
72805;Laerm;60920;48.748;19.142;2024-01-30T02:12:54;29.04;27.55;30.25;;
72805;Laerm;60920;48.748;19.142;2024-01-30T02:15:19;29.06;27.83;30.34;;
72805;Laerm;60920;48.748;19.142;2024-01-30T02:17:44;29.04;27.77;30.26;;
72805;Laerm;60920;48.748;19.142;2024-01-30T02:20:10;29.03;27.67;30.11;;
72805;Laerm;60920;48.748;19.142;2024-01-30T02:22:35;29.01;27.73;30.26;;
72805;Laerm;60920;48.748;19.142;2024-01-30T02:25:01;29.00;27.63;30.26;;
72805;Laerm;60920;48.748;19.142;2024-01-30T02:27:26;28.99;27.81;30.16;;
72805;Laerm;60920;48.748;19.142;2024-01-30T02:29:51;29.00;27.80;30.21;;
72805;Laerm;60920;48.748;19.142;2024-01-30T02:32:17;29.01;27.78;30.47;;
72805;Laerm;60920;48.748;19.142;2024-01-30T02:34:42;29.02;27.69;30.24;;
72805;Laerm;60920;48.748;19.142;2024-01-30T02:37:07;29.01;27.72;30.12;;
72805;Laerm;60920;48.748;19.142;2024-01-30T02:39:33;29.00;27.68;30.29;;
72805;Laerm;60920;48.748;19.142;2024-01-30T02:41:58;28.99;27.76;30.08;;
72805;Laerm;60920;48.748;19.142;2024-01-30T02:44:23;28.99;27.76;30.44;;
72805;Laerm;60920;48.748;19.142;2024-01-30T02:46:49;28.98;27.57;30.15;;
72805;Laerm;60920;48.748;19.142;2024-01-30T02:49:14;29.01;27.76;30.26;;
72805;Laerm;60920;48.748;19.142;2024-01-30T02:51:39;29.01;27.78;30.19;;
72805;Laerm;60920;48.748;19.142;2024-01-30T02:54:04;29.01;27.81;30.08;;
72805;Laerm;60920;48.748;19.142;2024-01-30T02:56:30;29.01;27.80;30.19;;
72805;Laerm;60920;48.748;19.142;2024-01-30T02:58:55;29.00;27.74;30.32;;
72805;Laerm;60920;48.748;19.142;2024-01-30T03:01:21;28.99;27.88;30.16;;
72805;Laerm;60920;48.748;19.142;2024-01-30T03:03:48;28.97;27.46;30.12;;
72805;Laerm;60920;48.748;19.142;2024-01-30T03:06:13;28.95;27.62;30.12;;
72805;Laerm;60920;48.748;19.142;2024-01-30T03:08:40;28.93;27.62;30.03;;
72805;Laerm;60920;48.748;19.142;2024-01-30T03:11:06;28.92;27.76;30.06;;
72805;Laerm;60920;48.748;19.142;2024-01-30T03:13:31;28.91;27.49;30.07;;
72805;Laerm;60920;48.748;19.142;2024-01-30T03:15:56;28.93;27.70;30.31;;
72805;Laerm;60920;48.748;19.142;2024-01-30T03:18:22;28.93;27.84;30.17;;
72805;Laerm;60920;48.748;19.142;2024-01-30T03:20:47;28.93;27.78;29.95;;
72805;Laerm;60920;48.748;19.142;2024-01-30T03:23:12;28.93;27.69;30.14;;
72805;Laerm;60920;48.748;19.142;2024-01-30T03:25:37;28.94;27.73;30.23;;
72805;Laerm;60920;48.748;19.142;2024-01-30T03:28:03;28.94;27.74;30.08;;
72805;Laerm;60920;48.748;19.142;2024-01-30T03:30:28;28.94;27.67;30.12;;
72805;Laerm;60920;48.748;19.142;2024-01-30T03:32:53;28.92;27.65;30.25;;
72805;Laerm;60920;48.748;19.142;2024-01-30T03:35:19;28.94;27.71;30.07;;
72805;Laerm;60920;48.748;19.142;2024-01-30T03:37:44;28.98;27.67;30.33;;
72805;Laerm;60920;48.748;19.142;2024-01-30T03:40:10;29.00;27.69;30.14;;
72805;Laerm;60920;48.748;19.142;2024-01-30T03:42:35;29.05;27.84;30.28;;
72805;Laerm;60920;48.748;19.142;2024-01-30T03:45:01;29.07;27.71;30.17;;
72805;Laerm;60920;48.748;19.142;2024-01-30T03:47:26;29.10;27.93;30.42;;
72805;Laerm;60920;48.748;19.142;2024-01-30T03:49:52;29.11;27.87;30.50;;
72805;Laerm;60920;48.748;19.142;2024-01-30T03:52:17;29.13;27.98;30.25;;
72805;Laerm;60920;48.748;19.142;2024-01-30T03:54:42;29.14;27.63;30.30;;
72805;Laerm;60920;48.748;19.142;2024-01-30T03:57:07;29.15;27.99;30.27;;
72805;Laerm;60920;48.748;19.142;2024-01-30T03:59:33;29.16;27.92;30.32;;
72805;Laerm;60920;48.748;19.142;2024-01-30T04:01:58;29.19;27.89;30.61;;
72805;Laerm;60920;48.748;19.142;2024-01-30T04:04:23;29.19;28.06;30.35;;
72805;Laerm;60920;48.748;19.142;2024-01-30T04:06:49;29.18;27.71;30.41;;
72805;Laerm;60920;48.748;19.142;2024-01-30T04:09:14;29.20;27.97;30.36;;
72805;Laerm;60920;48.748;19.142;2024-01-30T04:11:39;29.18;27.95;30.29;;
72805;Laerm;60920;48.748;19.142;2024-01-30T04:14:05;29.19;27.88;30.45;;
72805;Laerm;60920;48.748;19.142;2024-01-30T04:16:30;29.19;27.83;30.46;;
72805;Laerm;60920;48.748;19.142;2024-01-30T04:18:55;29.18;27.82;30.28;;
72805;Laerm;60920;48.748;19.142;2024-01-30T04:21:21;29.17;27.89;30.40;;
72805;Laerm;60920;48.748;19.142;2024-01-30T04:23:47;29.15;28.05;30.32;;
72805;Laerm;60920;48.748;19.142;2024-01-30T04:26:13;29.13;27.77;30.34;;
72805;Laerm;60920;48.748;19.142;2024-01-30T04:28:38;29.09;27.87;30.24;;
72805;Laerm;60920;48.748;19.142;2024-01-30T04:31:03;29.06;27.76;30.47;;
72805;Laerm;60920;48.748;19.142;2024-01-30T04:33:29;29.05;27.79;30.29;;
72805;Laerm;60920;48.748;19.142;2024-01-30T04:35:54;29.04;27.84;30.14;;
72805;Laerm;60920;48.748;19.142;2024-01-30T04:38:19;29.02;27.88;30.19;;
72805;Laerm;60920;48.748;19.142;2024-01-30T04:40:44;29.01;27.63;31.08;;
72805;Laerm;60920;48.748;19.142;2024-01-30T04:43:10;29.01;27.75;30.21;;
72805;Laerm;60920;48.748;19.142;2024-01-30T04:45:35;29.01;27.77;30.15;;
72805;Laerm;60920;48.748;19.142;2024-01-30T04:48:00;28.95;27.73;30.16;;
72805;Laerm;60920;48.748;19.142;2024-01-30T04:50:26;28.94;27.73;30.29;;
72805;Laerm;60920;48.748;19.142;2024-01-30T04:52:52;28.96;27.77;30.18;;
72805;Laerm;60920;48.748;19.142;2024-01-30T04:55:17;28.95;27.64;30.16;;
72805;Laerm;60920;48.748;19.142;2024-01-30T04:57:42;28.94;27.71;30.15;;
72805;Laerm;60920;48.748;19.142;2024-01-30T05:00:08;28.96;27.77;30.16;;
72805;Laerm;60920;48.748;19.142;2024-01-30T05:02:33;28.98;27.55;30.18;;
72805;Laerm;60920;48.748;19.142;2024-01-30T05:04:59;28.99;27.71;30.24;;
72805;Laerm;60920;48.748;19.142;2024-01-30T05:07:24;29.00;27.46;30.03;;
72805;Laerm;60920;48.748;19.142;2024-01-30T05:09:49;28.99;27.85;30.22;;
72805;Laerm;60920;48.748;19.142;2024-01-30T05:12:15;29.02;27.82;30.13;;
72805;Laerm;60920;48.748;19.142;2024-01-30T05:14:40;29.06;27.66;30.18;;
72805;Laerm;60920;48.748;19.142;2024-01-30T05:17:05;29.12;27.60;30.21;;
72805;Laerm;60920;48.748;19.142;2024-01-30T05:19:31;29.16;28.00;30.51;;
72805;Laerm;60920;48.748;19.142;2024-01-30T05:21:56;29.22;27.99;30.34;;
72805;Laerm;60920;48.748;19.142;2024-01-30T05:24:21;29.24;27.93;30.44;;
72805;Laerm;60920;48.748;19.142;2024-01-30T05:26:46;29.23;27.92;30.26;;
72805;Laerm;60920;48.748;19.142;2024-01-30T05:29:13;29.24;27.91;30.42;;
72805;Laerm;60920;48.748;19.142;2024-01-30T05:31:38;29.24;27.90;30.54;;
72805;Laerm;60920;48.748;19.142;2024-01-30T05:34:03;29.24;28.08;30.61;;
72805;Laerm;60920;48.748;19.142;2024-01-30T05:36:29;29.29;28.10;30.40;;
72805;Laerm;60920;48.748;19.142;2024-01-30T05:38:55;29.29;27.75;30.43;;
72805;Laerm;60920;48.748;19.142;2024-01-30T05:41:21;29.33;27.96;30.48;;
72805;Laerm;60920;48.748;19.142;2024-01-30T05:43:46;29.32;28.16;30.55;;
72805;Laerm;60920;48.748;19.142;2024-01-30T05:46:11;29.35;28.08;30.46;;
72805;Laerm;60920;48.748;19.142;2024-01-30T05:48:37;29.37;27.99;30.53;;
72805;Laerm;60920;48.748;19.142;2024-01-30T05:51:02;29.39;28.15;30.69;;
72805;Laerm;60920;48.748;19.142;2024-01-30T05:53:28;29.38;27.98;30.51;;
72805;Laerm;60920;48.748;19.142;2024-01-30T05:55:54;29.39;27.93;30.50;;
72805;Laerm;60920;48.748;19.142;2024-01-30T05:58:19;29.41;28.26;30.57;;
72805;Laerm;60920;48.748;19.142;2024-01-30T06:00:44;29.41;28.25;30.65;;
72805;Laerm;60920;48.748;19.142;2024-01-30T06:03:10;29.40;28.08;30.55;;
72805;Laerm;60920;48.748;19.142;2024-01-30T06:05:35;29.43;28.08;30.91;;
72805;Laerm;60920;48.748;19.142;2024-01-30T06:08:00;29.42;27.94;30.77;;
72805;Laerm;60920;48.748;19.142;2024-01-30T06:10:25;29.42;28.25;30.48;;
72805;Laerm;60920;48.748;19.142;2024-01-30T06:12:51;29.43;28.02;30.62;;
72805;Laerm;60920;48.748;19.142;2024-01-30T06:15:16;29.44;28.22;30.69;;
72805;Laerm;60920;48.748;19.142;2024-01-30T06:17:41;29.41;28.08;30.80;;
72805;Laerm;60920;48.748;19.142;2024-01-30T06:20:07;29.42;28.25;30.65;;
72805;Laerm;60920;48.748;19.142;2024-01-30T06:22:32;29.38;28.09;30.67;;
72805;Laerm;60920;48.748;19.142;2024-01-30T06:24:57;29.39;28.23;30.55;;
72805;Laerm;60920;48.748;19.142;2024-01-30T06:27:23;29.40;28.18;30.78;;
72805;Laerm;60920;48.748;19.142;2024-01-30T06:29:48;29.35;27.95;30.62;;
72805;Laerm;60920;48.748;19.142;2024-01-30T06:32:13;29.36;28.06;30.63;;
72805;Laerm;60920;48.748;19.142;2024-01-30T06:34:39;29.30;28.00;30.59;;
72805;Laerm;60920;48.748;19.142;2024-01-30T06:37:05;29.31;27.99;30.52;;
72805;Laerm;60920;48.748;19.142;2024-01-30T06:39:31;29.31;28.03;31.71;;
72805;Laerm;60920;48.748;19.142;2024-01-30T06:41:56;29.28;27.92;30.51;;
72805;Laerm;60920;48.748;19.142;2024-01-30T06:44:21;29.30;28.11;30.52;;
72805;Laerm;60920;48.748;19.142;2024-01-30T06:46:47;29.26;27.87;30.49;;
72805;Laerm;60920;48.748;19.142;2024-01-30T06:49:12;29.26;27.96;32.58;;
72805;Laerm;60920;48.748;19.142;2024-01-30T06:51:37;29.27;27.91;30.51;;
72805;Laerm;60920;48.748;19.142;2024-01-30T06:54:02;29.26;27.97;30.49;;
72805;Laerm;60920;48.748;19.142;2024-01-30T06:56:28;29.26;27.93;30.47;;
72805;Laerm;60920;48.748;19.142;2024-01-30T06:58:53;29.25;27.95;30.77;;
72805;Laerm;60920;48.748;19.142;2024-01-30T07:01:19;29.28;27.59;30.85;;
72805;Laerm;60920;48.748;19.142;2024-01-30T07:03:44;29.22;27.98;30.57;;
72805;Laerm;60920;48.748;19.142;2024-01-30T07:06:09;29.25;27.88;30.79;;
72805;Laerm;60920;48.748;19.142;2024-01-30T07:08:36;29.22;27.88;30.75;;
72805;Laerm;60920;48.748;19.142;2024-01-30T07:11:02;29.18;27.93;30.54;;
72805;Laerm;60920;48.748;19.142;2024-01-30T07:13:27;29.20;27.76;30.75;;
72805;Laerm;60920;48.748;19.142;2024-01-30T07:15:53;29.23;28.09;30.57;;
72805;Laerm;60920;48.748;19.142;2024-01-30T07:18:19;29.25;27.94;32.34;;
72805;Laerm;60920;48.748;19.142;2024-01-30T07:20:44;29.24;27.87;40.60;;
72805;Laerm;60920;48.748;19.142;2024-01-30T07:23:14;29.16;27.88;30.20;;
72805;Laerm;60920;48.748;19.142;2024-01-30T07:25:41;29.16;27.75;30.40;;
72805;Laerm;60920;48.748;19.142;2024-01-30T07:28:10;29.17;27.90;30.38;;
72805;Laerm;60920;48.748;19.142;2024-01-30T07:30:36;29.21;27.85;30.62;;
72805;Laerm;60920;48.748;19.142;2024-01-30T07:33:01;29.18;27.86;30.43;;
72805;Laerm;60920;48.748;19.142;2024-01-30T07:35:26;29.15;28.00;30.26;;
72805;Laerm;60920;48.748;19.142;2024-01-30T07:37:52;29.15;28.01;30.41;;
72805;Laerm;60920;48.748;19.142;2024-01-30T07:40:17;29.19;27.72;30.65;;
72805;Laerm;60920;48.748;19.142;2024-01-30T07:42:42;29.18;27.95;30.34;;
72805;Laerm;60920;48.748;19.142;2024-01-30T07:45:08;29.17;27.80;30.42;;
72805;Laerm;60920;48.748;19.142;2024-01-30T07:47:33;29.18;27.88;30.45;;
72805;Laerm;60920;48.748;19.142;2024-01-30T07:49:59;29.17;27.95;30.54;;
72805;Laerm;60920;48.748;19.142;2024-01-30T07:52:24;29.18;27.89;30.32;;
72805;Laerm;60920;48.748;19.142;2024-01-30T07:54:50;29.19;27.74;30.66;;
72805;Laerm;60920;48.748;19.142;2024-01-30T07:57:15;29.15;27.76;30.48;;
72805;Laerm;60920;48.748;19.142;2024-01-30T07:59:44;29.12;27.81;30.43;;
72805;Laerm;60920;48.748;19.142;2024-01-30T08:02:09;29.14;27.93;30.41;;
72805;Laerm;60920;48.748;19.142;2024-01-30T08:04:35;29.15;27.84;30.45;;
72805;Laerm;60920;48.748;19.142;2024-01-30T08:07:00;29.15;27.78;30.40;;
72805;Laerm;60920;48.748;19.142;2024-01-30T08:09:26;29.13;27.86;30.34;;
72805;Laerm;60920;48.748;19.142;2024-01-30T08:11:51;29.19;27.79;31.90;;
72805;Laerm;60920;48.748;19.142;2024-01-30T08:14:16;29.13;27.89;30.33;;
72805;Laerm;60920;48.748;19.142;2024-01-30T08:16:41;29.18;28.00;30.49;;
72805;Laerm;60920;48.748;19.142;2024-01-30T08:19:07;29.23;28.04;30.60;;
72805;Laerm;60920;48.748;19.142;2024-01-30T08:21:32;29.19;27.88;30.49;;
72805;Laerm;60920;48.748;19.142;2024-01-30T08:24:01;29.22;28.04;30.38;;
72805;Laerm;60920;48.748;19.142;2024-01-30T08:26:27;29.17;27.98;30.37;;
72805;Laerm;60920;48.748;19.142;2024-01-30T08:28:52;29.23;27.86;30.39;;
72805;Laerm;60920;48.748;19.142;2024-01-30T08:31:18;29.17;27.83;30.44;;
72805;Laerm;60920;48.748;19.142;2024-01-30T08:33:43;29.12;27.88;30.27;;
72805;Laerm;60920;48.748;19.142;2024-01-30T08:36:09;29.17;27.79;30.27;;
72805;Laerm;60920;48.748;19.142;2024-01-30T08:38:34;29.17;27.79;30.34;;
72805;Laerm;60920;48.748;19.142;2024-01-30T08:40:59;29.17;27.87;30.30;;
72805;Laerm;60920;48.748;19.142;2024-01-30T08:43:25;29.18;27.68;33.48;;
72805;Laerm;60920;48.748;19.142;2024-01-30T08:45:50;29.30;27.84;33.39;;
72805;Laerm;60920;48.748;19.142;2024-01-30T08:48:15;29.37;28.03;30.53;;
72805;Laerm;60920;48.748;19.142;2024-01-30T08:50:40;29.39;28.10;30.74;;
72805;Laerm;60920;48.748;19.142;2024-01-30T08:53:06;29.39;28.19;30.64;;
72805;Laerm;60920;48.748;19.142;2024-01-30T08:55:31;29.36;28.11;30.77;;
72805;Laerm;60920;48.748;19.142;2024-01-30T08:57:56;29.45;28.35;30.79;;
72805;Laerm;60920;48.748;19.142;2024-01-30T09:00:22;29.39;28.12;30.50;;
72805;Laerm;60920;48.748;19.142;2024-01-30T09:02:47;29.40;27.92;30.52;;
72805;Laerm;60920;48.748;19.142;2024-01-30T09:05:12;29.53;28.09;30.63;;
72805;Laerm;60920;48.748;19.142;2024-01-30T09:07:38;29.71;28.42;31.39;;
72805;Laerm;60920;48.748;19.142;2024-01-30T09:10:03;29.51;28.12;30.80;;
72805;Laerm;60920;48.748;19.142;2024-01-30T09:12:28;29.93;28.27;31.07;;
72805;Laerm;60920;48.748;19.142;2024-01-30T09:14:54;30.36;28.45;45.65;;
72805;Laerm;60920;48.748;19.142;2024-01-30T09:17:20;29.64;28.44;31.98;;
72805;Laerm;60920;48.748;19.142;2024-01-30T09:19:45;29.81;28.48;30.96;;
72805;Laerm;60920;48.748;19.142;2024-01-30T09:22:11;29.83;28.62;31.36;;
72805;Laerm;60920;48.748;19.142;2024-01-30T09:24:36;29.66;28.41;30.81;;
72805;Laerm;60920;48.748;19.142;2024-01-30T09:27:01;29.61;28.30;30.81;;
72805;Laerm;60920;48.748;19.142;2024-01-30T09:29:26;29.72;28.30;30.94;;
72805;Laerm;60920;48.748;19.142;2024-01-30T09:31:52;30.01;28.68;31.27;;
72805;Laerm;60920;48.748;19.142;2024-01-30T09:34:17;29.91;28.85;31.15;;
72805;Laerm;60920;48.748;19.142;2024-01-30T09:36:42;29.94;28.52;31.09;;
72805;Laerm;60920;48.748;19.142;2024-01-30T09:39:07;30.15;28.84;31.28;;
72805;Laerm;60920;48.748;19.142;2024-01-30T09:41:33;30.48;29.25;31.71;;
72805;Laerm;60920;48.748;19.142;2024-01-30T09:44:00;30.40;29.18;31.44;;
72805;Laerm;60920;48.748;19.142;2024-01-30T09:46:27;30.68;29.32;31.73;;
72805;Laerm;60920;48.748;19.142;2024-01-30T09:48:53;30.81;29.60;32.96;;
72805;Laerm;60920;48.748;19.142;2024-01-30T09:51:20;30.43;29.15;31.63;;
72805;Laerm;60920;48.748;19.142;2024-01-30T09:53:45;30.32;29.02;32.50;;
72805;Laerm;60920;48.748;19.142;2024-01-30T09:56:14;30.22;28.85;31.43;;
72805;Laerm;60920;48.748;19.142;2024-01-30T09:58:40;30.66;29.30;32.02;;
72805;Laerm;60920;48.748;19.142;2024-01-30T10:01:06;30.59;29.35;31.75;;
72805;Laerm;60920;48.748;19.142;2024-01-30T10:03:31;30.51;29.25;32.04;;
72805;Laerm;60920;48.748;19.142;2024-01-30T10:05:56;30.64;29.45;31.77;;
72805;Laerm;60920;48.748;19.142;2024-01-30T10:08:22;30.51;29.17;31.74;;
72805;Laerm;60920;48.748;19.142;2024-01-30T10:10:49;30.40;29.20;31.54;;
72805;Laerm;60920;48.748;19.142;2024-01-30T10:13:15;30.35;29.20;31.80;;
72805;Laerm;60920;48.748;19.142;2024-01-30T10:15:40;30.48;29.04;31.66;;
72805;Laerm;60920;48.748;19.142;2024-01-30T10:18:06;30.64;29.04;31.89;;
72805;Laerm;60920;48.748;19.142;2024-01-30T10:20:32;30.88;29.70;32.10;;
72805;Laerm;60920;48.748;19.142;2024-01-30T10:22:57;30.74;29.60;32.05;;
72805;Laerm;60920;48.748;19.142;2024-01-30T10:25:23;30.58;29.26;31.76;;
72805;Laerm;60920;48.748;19.142;2024-01-30T10:27:52;30.68;29.35;32.14;;
72805;Laerm;60920;48.748;19.142;2024-01-30T10:30:18;30.85;29.42;32.04;;
72805;Laerm;60920;48.748;19.142;2024-01-30T10:32:43;30.94;29.61;32.10;;
72805;Laerm;60920;48.748;19.142;2024-01-30T10:35:09;30.99;29.77;32.51;;
72805;Laerm;60920;48.748;19.142;2024-01-30T10:37:34;30.96;29.62;32.32;;
72805;Laerm;60920;48.748;19.142;2024-01-30T10:40:02;30.87;29.70;32.28;;
72805;Laerm;60920;48.748;19.142;2024-01-30T10:42:29;30.83;29.55;32.18;;
72805;Laerm;60920;48.748;19.142;2024-01-30T10:44:57;30.95;29.75;32.17;;
72805;Laerm;60920;48.748;19.142;2024-01-30T10:47:28;30.97;29.65;32.36;;
72805;Laerm;60920;48.748;19.142;2024-01-30T10:49:54;31.02;29.63;32.24;;
72805;Laerm;60920;48.748;19.142;2024-01-30T10:52:19;30.97;29.60;32.89;;
72805;Laerm;60920;48.748;19.142;2024-01-30T10:54:45;30.98;29.55;32.11;;
72805;Laerm;60920;48.748;19.142;2024-01-30T10:57:11;30.95;29.46;32.10;;
72805;Laerm;60920;48.748;19.142;2024-01-30T10:59:37;30.97;29.58;32.27;;
72805;Laerm;60920;48.748;19.142;2024-01-30T11:02:03;30.93;29.45;32.13;;
72805;Laerm;60920;48.748;19.142;2024-01-30T11:04:35;30.69;29.23;32.01;;
72805;Laerm;60920;48.748;19.142;2024-01-30T11:07:01;30.28;28.92;31.84;;
72805;Laerm;60920;48.748;19.142;2024-01-30T11:09:28;30.39;28.85;31.78;;
72805;Laerm;60920;48.748;19.142;2024-01-30T11:11:57;30.40;28.99;32.13;;
72805;Laerm;60920;48.748;19.142;2024-01-30T11:14:27;30.47;29.12;31.89;;
72805;Laerm;60920;48.748;19.142;2024-01-30T11:16:56;30.30;28.71;31.53;;
72805;Laerm;60920;48.748;19.142;2024-01-30T11:19:25;30.26;28.86;31.68;;
72805;Laerm;60920;48.748;19.142;2024-01-30T11:21:52;30.03;28.62;32.02;;
72805;Laerm;60920;48.748;19.142;2024-01-30T11:24:22;29.86;28.41;31.31;;
72805;Laerm;60920;48.748;19.142;2024-01-30T11:26:55;29.70;28.37;31.29;;
72805;Laerm;60920;48.748;19.142;2024-01-30T11:29:24;29.66;28.26;31.04;;
72805;Laerm;60920;48.748;19.142;2024-01-30T11:31:53;29.42;28.07;30.61;;
72805;Laerm;60920;48.748;19.142;2024-01-30T11:34:18;29.38;27.78;30.69;;
72805;Laerm;60920;48.748;19.142;2024-01-30T11:36:45;29.44;27.99;30.71;;
72805;Laerm;60920;48.748;19.142;2024-01-30T11:39:15;29.36;28.01;31.34;;
72805;Laerm;60920;48.748;19.142;2024-01-30T11:41:42;29.40;27.99;33.31;;
72805;Laerm;60920;48.748;19.142;2024-01-30T11:44:08;29.32;27.74;31.09;;
72805;Laerm;60920;48.748;19.142;2024-01-30T11:46:34;29.20;27.92;30.51;;
72805;Laerm;60920;48.748;19.142;2024-01-30T11:49:00;29.22;27.68;30.78;;
72805;Laerm;60920;48.748;19.142;2024-01-30T11:51:25;29.18;27.88;30.27;;
72805;Laerm;60920;48.748;19.142;2024-01-30T11:53:50;29.09;27.72;30.41;;
72805;Laerm;60920;48.748;19.142;2024-01-30T11:56:16;29.05;27.50;30.40;;
72805;Laerm;60920;48.748;19.142;2024-01-30T11:58:44;29.04;27.62;30.33;;
72805;Laerm;60920;48.748;19.142;2024-01-30T12:01:10;37.29;27.76;51.08;;
72805;Laerm;60920;48.748;19.142;2024-01-30T12:03:35;39.94;27.83;52.16;;
72805;Laerm;60920;48.748;19.142;2024-01-30T12:06:02;28.96;27.58;30.82;;
72805;Laerm;60920;48.748;19.142;2024-01-30T12:08:28;28.91;27.49;30.27;;
72805;Laerm;60920;48.748;19.142;2024-01-30T12:10:56;28.90;27.55;30.17;;
72805;Laerm;60920;48.748;19.142;2024-01-30T12:13:22;28.82;27.32;30.24;;
72805;Laerm;60920;48.748;19.142;2024-01-30T12:15:48;28.85;27.51;30.10;;
72805;Laerm;60920;48.748;19.142;2024-01-30T12:18:13;31.79;27.58;48.40;;
72805;Laerm;60920;48.748;19.142;2024-01-30T12:20:38;38.57;27.80;53.36;;
72805;Laerm;60920;48.748;19.142;2024-01-30T12:23:03;29.42;27.48;46.75;;
72805;Laerm;60920;48.748;19.142;2024-01-30T12:25:29;28.88;27.64;30.13;;
72805;Laerm;60920;48.748;19.142;2024-01-30T12:27:54;29.48;27.68;36.91;;
72805;Laerm;60920;48.748;19.142;2024-01-30T12:30:20;29.97;27.78;38.09;;
72805;Laerm;60920;48.748;19.142;2024-01-30T12:32:46;28.91;27.48;30.51;;
72805;Laerm;60920;48.748;19.142;2024-01-30T12:35:15;29.03;27.57;30.64;;
72805;Laerm;60920;48.748;19.142;2024-01-30T12:37:44;29.03;27.44;30.99;;
72805;Laerm;60920;48.748;19.142;2024-01-30T12:40:10;28.91;27.61;30.22;;
72805;Laerm;60920;48.748;19.142;2024-01-30T12:42:36;29.00;27.77;30.30;;
72805;Laerm;60920;48.748;19.142;2024-01-30T12:45:05;29.02;27.64;31.45;;
72805;Laerm;60920;48.748;19.142;2024-01-30T12:47:30;29.09;27.89;31.62;;
72805;Laerm;60920;48.748;19.142;2024-01-30T12:49:56;30.35;27.86;41.39;;
72805;Laerm;60920;48.748;19.142;2024-01-30T12:52:21;29.69;27.86;41.05;;
72805;Laerm;60920;48.748;19.142;2024-01-30T12:54:50;29.27;27.86;30.78;;
72805;Laerm;60920;48.748;19.142;2024-01-30T12:57:15;29.38;27.95;31.06;;
72805;Laerm;60920;48.748;19.142;2024-01-30T12:59:41;29.29;27.62;30.89;;
72805;Laerm;60920;48.748;19.142;2024-01-30T13:02:06;29.22;27.84;30.47;;
72805;Laerm;60920;48.748;19.142;2024-01-30T13:04:32;29.27;27.87;30.67;;
72805;Laerm;60920;48.748;19.142;2024-01-30T13:06:57;29.24;27.72;30.77;;
72805;Laerm;60920;48.748;19.142;2024-01-30T13:09:23;29.19;27.51;30.48;;
72805;Laerm;60920;48.748;19.142;2024-01-30T13:11:48;29.28;27.93;33.43;;
72805;Laerm;60920;48.748;19.142;2024-01-30T13:14:14;29.28;27.59;34.43;;
72805;Laerm;60920;48.748;19.142;2024-01-30T13:16:39;29.23;27.68;31.30;;
72805;Laerm;60920;48.748;19.142;2024-01-30T13:19:04;29.17;27.71;30.71;;
72805;Laerm;60920;48.748;19.142;2024-01-30T13:21:29;29.32;27.94;30.67;;
72805;Laerm;60920;48.748;19.142;2024-01-30T13:23:55;29.43;27.84;30.59;;